sensor_id;sensor_type;location;lat;lon;timestamp;pressure;altitude;pressure_sealevel;temperature;humidity
75188;BME280;63762;51.334;22.108;2023-02-25T00:02:20;99524.51;;;6.28;83.09
75188;BME280;63762;51.334;22.108;2023-02-25T00:12:28;99511.39;;;6.36;82.95
75188;BME280;63762;51.334;22.108;2023-02-25T00:22:35;99486.37;;;6.37;82.75
75188;BME280;63762;51.334;22.108;2023-02-25T00:32:42;99472.80;;;6.29;83.04
75188;BME280;63762;51.334;22.108;2023-02-25T00:42:50;99442.88;;;6.04;83.98
75188;BME280;63762;51.334;22.108;2023-02-25T00:52:56;99464.02;;;5.96;84.57
75188;BME280;63762;51.334;22.108;2023-02-25T01:03:03;99426.86;;;6.04;84.29
75188;BME280;63762;51.334;22.108;2023-02-25T01:13:10;99450.39;;;6.10;84.06
75188;BME280;63762;51.334;22.108;2023-02-25T01:23:17;99425.63;;;6.08;83.72
75188;BME280;63762;51.334;22.108;2023-02-25T01:33:24;99419.96;;;5.90;84.20
75188;BME280;63762;51.334;22.108;2023-02-25T01:43:32;99357.26;;;5.96;84.07
75188;BME280;63762;51.334;22.108;2023-02-25T01:53:45;99348.51;;;5.94;83.70
75188;BME280;63762;51.334;22.108;2023-02-25T02:03:48;99329.10;;;5.92;83.44
75188;BME280;63762;51.334;22.108;2023-02-25T02:13:55;99341.49;;;5.93;83.35
75188;BME280;63762;51.334;22.108;2023-02-25T02:54:40;99317.97;;;5.33;83.93
75188;BME280;63762;51.334;22.108;2023-02-25T03:04:45;99288.91;;;5.08;83.20
75188;BME280;63762;51.334;22.108;2023-02-25T03:14:48;99277.14;;;5.11;82.22
75188;BME280;63762;51.334;22.108;2023-02-25T03:24:57;99272.42;;;5.14;82.23
75188;BME280;63762;51.334;22.108;2023-02-25T03:35:01;99291.31;;;5.00;82.68
75188;BME280;63762;51.334;22.108;2023-02-25T03:45:06;99273.30;;;4.93;82.76
75188;BME280;63762;51.334;22.108;2023-02-25T03:55:10;99289.75;;;4.76;82.99
75188;BME280;63762;51.334;22.108;2023-02-25T04:05:12;99284.29;;;4.55;83.53
75188;BME280;63762;51.334;22.108;2023-02-25T04:15:20;99243.50;;;4.43;84.21
75188;BME280;63762;51.334;22.108;2023-02-25T04:25:26;99244.49;;;4.64;84.03
75188;BME280;63762;51.334;22.108;2023-02-25T04:35:33;99252.23;;;4.68;82.87
75188;BME280;63762;51.334;22.108;2023-02-25T04:45:40;99251.52;;;4.54;82.31
75188;BME280;63762;51.334;22.108;2023-02-25T04:55:47;99254.65;;;4.37;83.10
75188;BME280;63762;51.334;22.108;2023-02-25T05:05:54;99244.48;;;4.31;83.07
75188;BME280;63762;51.334;22.108;2023-02-25T05:16:03;99266.31;;;4.13;83.64
75188;BME280;63762;51.334;22.108;2023-02-25T05:26:09;99258.22;;;4.14;83.30
75188;BME280;63762;51.334;22.108;2023-02-25T05:36:16;99250.57;;;3.99;84.21
75188;BME280;63762;51.334;22.108;2023-02-25T05:46:24;99259.06;;;4.04;84.49
75188;BME280;63762;51.334;22.108;2023-02-25T05:56:30;99241.19;;;4.17;83.66
75188;BME280;63762;51.334;22.108;2023-02-25T06:06:37;99254.68;;;4.03;83.64
75188;BME280;63762;51.334;22.108;2023-02-25T06:16:44;99265.86;;;3.73;84.28
75188;BME280;63762;51.334;22.108;2023-02-25T06:26:51;99279.16;;;3.73;83.54
75188;BME280;63762;51.334;22.108;2023-02-25T06:36:59;99287.98;;;3.50;84.39
75188;BME280;63762;51.334;22.108;2023-02-25T06:47:06;99295.66;;;3.42;84.63
75188;BME280;63762;51.334;22.108;2023-02-25T06:57:13;99308.40;;;3.50;84.33
75188;BME280;63762;51.334;22.108;2023-02-25T07:07:20;99316.71;;;3.45;83.83
75188;BME280;63762;51.334;22.108;2023-02-25T07:17:27;99330.05;;;3.56;83.33
75188;BME280;63762;51.334;22.108;2023-02-25T07:27:34;99330.16;;;3.55;83.90
75188;BME280;63762;51.334;22.108;2023-02-25T07:37:41;99353.38;;;3.53;83.88
75188;BME280;63762;51.334;22.108;2023-02-25T07:47:52;99352.45;;;3.41;83.29
75188;BME280;63762;51.334;22.108;2023-02-25T07:57:56;99356.74;;;3.31;81.34
75188;BME280;63762;51.334;22.108;2023-02-25T08:08:04;99366.08;;;3.37;80.99
75188;BME280;63762;51.334;22.108;2023-02-25T08:18:10;99353.27;;;3.54;80.45
75188;BME280;63762;51.334;22.108;2023-02-25T08:28:17;99352.87;;;3.71;79.19
75188;BME280;63762;51.334;22.108;2023-02-25T08:38:24;99342.76;;;3.76;79.80
75188;BME280;63762;51.334;22.108;2023-02-25T08:48:33;99345.00;;;3.93;79.99
75188;BME280;63762;51.334;22.108;2023-02-25T08:58:39;99330.70;;;4.63;77.70
75188;BME280;63762;51.334;22.108;2023-02-25T09:08:46;99337.46;;;4.68;76.71
75188;BME280;63762;51.334;22.108;2023-02-25T09:18:53;99343.15;;;4.63;75.30
75188;BME280;63762;51.334;22.108;2023-02-25T09:29:04;99338.05;;;4.14;73.92
75188;BME280;63762;51.334;22.108;2023-02-25T09:39:07;99331.01;;;4.48;74.66
75188;BME280;63762;51.334;22.108;2023-02-25T09:49:20;99331.68;;;5.07;71.93
75188;BME280;63762;51.334;22.108;2023-02-25T09:59:23;99330.65;;;5.52;68.73
75188;BME280;63762;51.334;22.108;2023-02-25T10:19:54;99320.51;;;5.24;68.85
75188;BME280;63762;51.334;22.108;2023-02-25T10:30:03;99325.86;;;5.13;70.39
75188;BME280;63762;51.334;22.108;2023-02-25T10:40:06;99325.35;;;4.86;71.59
75188;BME280;63762;51.334;22.108;2023-02-25T11:00:31;99303.70;;;5.01;76.57
75188;BME280;63762;51.334;22.108;2023-02-25T11:10:33;99288.86;;;5.73;72.62
75188;BME280;63762;51.334;22.108;2023-02-25T11:20:34;99268.84;;;6.51;67.42
75188;BME280;63762;51.334;22.108;2023-02-25T11:33:36;99305.38;;;5.02;74.03
75188;BME280;63762;51.334;22.108;2023-02-25T11:43:40;99292.79;;;4.03;80.13
75188;BME280;63762;51.334;22.108;2023-02-25T12:55:26;99286.29;;;5.51;75.19
75188;BME280;63762;51.334;22.108;2023-02-25T13:46:33;99321.45;;;5.34;68.68
75188;BME280;63762;51.334;22.108;2023-02-25T14:27:34;99394.00;;;3.78;78.11
75188;BME280;63762;51.334;22.108;2023-02-25T14:58:07;99420.02;;;3.62;76.34
75188;BME280;63762;51.334;22.108;2023-02-25T15:28:40;99461.31;;;3.91;74.89
75188;BME280;63762;51.334;22.108;2023-02-25T15:38:50;99470.63;;;3.73;74.64
75188;BME280;63762;51.334;22.108;2023-02-25T15:59:06;99489.74;;;3.91;73.90
75188;BME280;63762;51.334;22.108;2023-02-25T16:09:13;99506.04;;;3.74;77.48
75188;BME280;63762;51.334;22.108;2023-02-25T16:19:18;99535.23;;;3.25;80.36
75188;BME280;63762;51.334;22.108;2023-02-25T16:29:30;99560.99;;;2.98;82.24
75188;BME280;63762;51.334;22.108;2023-02-25T16:39:32;99578.48;;;2.76;83.07
75188;BME280;63762;51.334;22.108;2023-02-25T16:49:37;99584.40;;;2.67;84.48
75188;BME280;63762;51.334;22.108;2023-02-25T16:59:39;99605.93;;;2.62;84.57
75188;BME280;63762;51.334;22.108;2023-02-25T17:19:54;99623.59;;;2.49;85.21
75188;BME280;63762;51.334;22.108;2023-02-25T17:29:56;99634.79;;;2.54;84.86
75188;BME280;63762;51.334;22.108;2023-02-25T17:40:02;99639.51;;;2.63;84.54
75188;BME280;63762;51.334;22.108;2023-02-25T18:00:28;99650.81;;;2.79;83.28
75188;BME280;63762;51.334;22.108;2023-02-25T18:10:41;99676.34;;;2.82;83.29
75188;BME280;63762;51.334;22.108;2023-02-25T18:20:42;99689.15;;;2.75;83.50
75188;BME280;63762;51.334;22.108;2023-02-25T18:30:48;99693.38;;;2.92;83.42
75188;BME280;63762;51.334;22.108;2023-02-25T18:40:51;99699.95;;;2.86;82.23
75188;BME280;63762;51.334;22.108;2023-02-25T18:50:54;99718.64;;;2.85;82.87
75188;BME280;63762;51.334;22.108;2023-02-25T19:00:58;99720.38;;;2.98;82.48
75188;BME280;63762;51.334;22.108;2023-02-25T19:10:59;99746.21;;;2.96;82.21
75188;BME280;63762;51.334;22.108;2023-02-25T19:21:00;99772.59;;;2.85;83.39
75188;BME280;63762;51.334;22.108;2023-02-25T19:31:05;99785.48;;;2.91;83.49
75188;BME280;63762;51.334;22.108;2023-02-25T19:41:07;99812.04;;;2.91;82.76
75188;BME280;63762;51.334;22.108;2023-02-25T19:51:12;99817.75;;;2.99;82.70
75188;BME280;63762;51.334;22.108;2023-02-25T20:01:15;99823.25;;;2.96;82.59
75188;BME280;63762;51.334;22.108;2023-02-25T20:11:17;99839.19;;;2.96;83.00
75188;BME280;63762;51.334;22.108;2023-02-25T20:21:20;99850.94;;;3.06;82.01
75188;BME280;63762;51.334;22.108;2023-02-25T20:31:22;99857.76;;;3.10;80.80
75188;BME280;63762;51.334;22.108;2023-02-25T20:41:24;99863.64;;;3.01;81.76
75188;BME280;63762;51.334;22.108;2023-02-25T20:51:25;99885.86;;;3.00;81.53
75188;BME280;63762;51.334;22.108;2023-02-25T21:01:27;99886.79;;;2.85;81.71
75188;BME280;63762;51.334;22.108;2023-02-25T21:11:28;99909.95;;;2.97;81.51
75188;BME280;63762;51.334;22.108;2023-02-25T21:21:29;99930.34;;;2.97;81.13
75188;BME280;63762;51.334;22.108;2023-02-25T21:31:38;99923.70;;;2.90;82.23
75188;BME280;63762;51.334;22.108;2023-02-25T21:41:39;99920.67;;;2.96;82.13
75188;BME280;63762;51.334;22.108;2023-02-25T21:51:41;99930.43;;;2.81;83.74
75188;BME280;63762;51.334;22.108;2023-02-25T22:01:43;99954.14;;;2.70;84.28
75188;BME280;63762;51.334;22.108;2023-02-25T22:11:44;99971.39;;;2.63;84.40
75188;BME280;63762;51.334;22.108;2023-02-25T22:21:46;100001.94;;;2.70;84.61
75188;BME280;63762;51.334;22.108;2023-02-25T22:31:47;100001.36;;;2.79;83.37
75188;BME280;63762;51.334;22.108;2023-02-25T22:41:48;100019.03;;;2.80;83.21
75188;BME280;63762;51.334;22.108;2023-02-25T22:51:49;100026.05;;;2.81;83.59
75188;BME280;63762;51.334;22.108;2023-02-25T23:01:50;100055.86;;;2.86;83.30
75188;BME280;63762;51.334;22.108;2023-02-25T23:11:51;100061.91;;;2.88;82.39
75188;BME280;63762;51.334;22.108;2023-02-25T23:21:53;100082.64;;;2.52;84.34
75188;BME280;63762;51.334;22.108;2023-02-25T23:31:59;100090.18;;;2.60;84.67
75188;BME280;63762;51.334;22.108;2023-02-25T23:42:06;100107.80;;;2.61;84.23
75188;BME280;63762;51.334;22.108;2023-02-25T23:52:13;100131.04;;;2.57;84.21
